createdAt,value
2023-04-21T00:00:09.660Z,100045.75
2023-04-21T00:02:40.097Z,100046.00
2023-04-21T00:05:12.793Z,100035.03
2023-04-21T00:07:41.697Z,100038.31
2023-04-21T00:10:12.170Z,100032.28
2023-04-21T00:12:39.332Z,100036.56
2023-04-21T00:15:07.001Z,100032.97
2023-04-21T00:17:34.687Z,100045.19
2023-04-21T00:20:01.805Z,100039.84
2023-04-21T00:22:30.564Z,100031.06
2023-04-21T00:24:58.458Z,100035.44
2023-04-21T00:27:25.779Z,100035.69
2023-04-21T00:29:52.804Z,100040.38
2023-04-21T00:32:19.832Z,100031.84
2023-04-21T00:34:46.907Z,100031.16
2023-04-21T00:37:13.912Z,100030.47
2023-04-21T00:39:41.015Z,100024.69
2023-04-21T00:42:08.093Z,100024.97
2023-04-21T00:44:36.252Z,100024.41
2023-04-21T00:47:04.442Z,100017.78
2023-04-21T00:49:31.573Z,100015.56
2023-04-21T00:51:58.769Z,100011.44
2023-04-21T00:54:27.121Z,100016.22
2023-04-21T00:56:55.485Z,100012.25
2023-04-21T00:59:22.412Z,100009.63
2023-04-21T01:01:49.655Z,100016.06
2023-04-21T01:04:16.651Z,100012.78
2023-04-21T01:06:44.855Z,100019.88
2023-04-21T01:09:14.562Z,100013.28
2023-04-21T01:11:41.522Z,100007.66
2023-04-21T01:14:08.705Z,100012.16
2023-04-21T01:16:38.473Z,100004.59
2023-04-21T01:19:06.116Z,100004.16
2023-04-21T01:21:43.214Z,100003.59
2023-04-21T01:24:11.726Z,100010.81
2023-04-21T01:26:39.015Z,99990.34
2023-04-21T01:29:06.239Z,99992.84
2023-04-21T01:31:33.189Z,99992.84
2023-04-21T01:34:04.357Z,99990.50
2023-04-21T01:36:31.595Z,99986.22
2023-04-21T01:38:58.546Z,99991.56
2023-04-21T01:41:25.485Z,99986.59
2023-04-21T01:43:54.704Z,99987.53
2023-04-21T01:46:24.711Z,99986.31
2023-04-21T01:48:51.736Z,99980.78
2023-04-21T01:51:18.790Z,99994.38
2023-04-21T01:53:45.923Z,99992.16
2023-04-21T01:56:16.062Z,99989.69
2023-04-21T01:58:43.218Z,99982.22
2023-04-21T02:01:10.276Z,99984.28
2023-04-21T02:03:37.508Z,99988.78
2023-04-21T02:06:04.819Z,99984.09
2023-04-21T02:08:31.748Z,99984.22
2023-04-21T02:11:01.828Z,99991.44
2023-04-21T02:13:28.968Z,99986.50
2023-04-21T02:16:06.109Z,99988.53
2023-04-21T02:18:40.091Z,99988.41
2023-04-21T02:21:07.452Z,99987.72
2023-04-21T02:23:34.530Z,99992.47
2023-04-21T02:26:01.697Z,99996.59
2023-04-21T02:28:28.708Z,100001.69
2023-04-21T02:30:55.801Z,99991.13
2023-04-21T02:33:23.069Z,99995.41
2023-04-21T02:35:50.070Z,99999.53
2023-04-21T02:38:17.620Z,99998.84
2023-04-21T02:40:44.490Z,99993.63
2023-04-21T02:43:14.654Z,100001.44
2023-04-21T02:45:41.756Z,99994.44
2023-04-21T02:48:08.767Z,99986.31
2023-04-21T02:50:36.358Z,99999.09
2023-04-21T02:53:03.610Z,99996.34
2023-04-21T02:55:31.033Z,99990.56
2023-04-21T02:57:58.174Z,99996.78
2023-04-21T03:00:26.150Z,99996.16
2023-04-21T03:02:53.708Z,100002.28
2023-04-21T03:05:21.355Z,99992.84
2023-04-21T03:07:48.294Z,99997.16
2023-04-21T03:10:15.511Z,99995.56
2023-04-21T03:12:42.706Z,100003.59
2023-04-21T03:15:09.825Z,99996.06
2023-04-21T03:17:36.865Z,100000.72
2023-04-21T03:20:06.838Z,100004.28
2023-04-21T03:22:35.595Z,100004.69
2023-04-21T03:25:02.709Z,100005.38
2023-04-21T03:27:31.069Z,100013.91
2023-04-21T03:29:58.069Z,100015.66
2023-04-21T03:32:25.311Z,100020.75
2023-04-21T03:34:52.552Z,100013.66
2023-04-21T03:37:20.494Z,100016.94
2023-04-21T03:39:57.968Z,100014.19
2023-04-21T03:42:26.229Z,100013.13
2023-04-21T03:44:53.309Z,100010.38
2023-04-21T03:47:20.359Z,100008.22
2023-04-21T03:49:47.243Z,100019.88
2023-04-21T03:52:14.183Z,100007.69
2023-04-21T03:54:41.271Z,100010.16
2023-04-21T03:57:08.175Z,100008.78
2023-04-21T03:59:36.798Z,100012.00
2023-04-21T04:02:11.590Z,100004.16
2023-04-21T04:04:38.889Z,100008.69
2023-04-21T04:07:07.681Z,100011.16
2023-04-21T04:09:37.144Z,100001.16
2023-04-21T04:12:04.332Z,99997.31
2023-04-21T04:14:31.420Z,100000.38
2023-04-21T04:16:59.468Z,99997.19
2023-04-21T04:19:32.715Z,99996.94
2023-04-21T04:22:01.513Z,99989.53
2023-04-21T04:24:28.770Z,100003.56
2023-04-21T04:26:58.074Z,99993.38
2023-04-21T04:29:25.174Z,99991.06
2023-04-21T04:31:52.265Z,99996.56
2023-04-21T04:34:19.579Z,99997.38
2023-04-21T04:36:48.228Z,100001.94
2023-04-21T04:39:16.930Z,100003.72
2023-04-21T04:41:44.036Z,100003.56
2023-04-21T04:44:11.416Z,100007.44
2023-04-21T04:46:39.658Z,99995.75
2023-04-21T04:49:06.686Z,99998.28
2023-04-21T04:51:33.914Z,100002.41
2023-04-21T04:54:01.265Z,99991.56
2023-04-21T04:56:30.509Z,99998.44
2023-04-21T04:58:57.512Z,99986.88
2023-04-21T05:01:30.407Z,99999.72
2023-04-21T05:03:57.917Z,99996.84
2023-04-21T05:06:26.226Z,99982.63
2023-04-21T05:08:53.232Z,99984.75
2023-04-21T05:11:20.460Z,99980.69
2023-04-21T05:13:47.710Z,99977.81
2023-04-21T05:16:15.385Z,99973.34
2023-04-21T05:18:42.583Z,99975.81
2023-04-21T05:21:15.969Z,99968.97
2023-04-21T05:23:43.427Z,99970.66
2023-04-21T05:26:10.522Z,99966.66
2023-04-21T05:28:37.530Z,99972.53
2023-04-21T05:31:04.504Z,99963.19
2023-04-21T05:33:32.082Z,99968.84
2023-04-21T05:35:59.082Z,99964.66
2023-04-21T05:38:27.471Z,99958.72
2023-04-21T05:40:56.268Z,99964.59
2023-04-21T05:43:23.438Z,99963.13
2023-04-21T05:45:50.452Z,99956.34
2023-04-21T05:48:17.528Z,99957.44
2023-04-21T05:50:44.827Z,99954.97
2023-04-21T05:53:11.749Z,99961.22
2023-04-21T05:55:38.881Z,99958.81
2023-04-21T05:58:08.939Z,99963.44
2023-04-21T06:00:36.002Z,99955.72
2023-04-21T06:03:03.467Z,99952.22
2023-04-21T06:05:30.898Z,99952.47
2023-04-21T06:07:57.845Z,99938.03
2023-04-21T06:10:24.879Z,99939.81
2023-04-21T06:12:52.035Z,99935.47
2023-04-21T06:15:19.063Z,99941.44
2023-04-21T06:17:46.186Z,99935.22
2023-04-21T06:20:13.521Z,99939.53
2023-04-21T06:22:40.720Z,99944.94
2023-04-21T06:25:08.028Z,99938.97
2023-04-21T06:27:34.905Z,99936.78
2023-04-21T06:30:01.998Z,99940.00
2023-04-21T06:32:31.556Z,99939.84
2023-04-21T06:34:58.525Z,99938.91
2023-04-21T06:37:25.468Z,99939.88
2023-04-21T06:39:52.428Z,99938.84
2023-04-21T06:42:19.555Z,99932.97
2023-04-21T06:44:47.822Z,99937.47
2023-04-21T06:47:17.015Z,99922.28
2023-04-21T06:49:44.079Z,99930.38
2023-04-21T06:52:11.639Z,99936.09
2023-04-21T06:54:38.893Z,99923.53
2023-04-21T06:57:06.171Z,99932.09
2023-04-21T06:59:34.527Z,99925.41
2023-04-21T07:02:01.632Z,99932.88
2023-04-21T07:04:32.313Z,99923.84
2023-04-21T07:07:01.677Z,99923.09
2023-04-21T07:09:30.967Z,99923.38
2023-04-21T07:11:58.613Z,99916.44
2023-04-21T07:14:26.234Z,99912.75
2023-04-21T07:16:53.238Z,99907.78
2023-04-21T07:19:20.581Z,99913.31
2023-04-21T07:21:48.149Z,99906.94
2023-04-21T07:24:15.150Z,99906.91
2023-04-21T07:26:42.151Z,99905.28
2023-04-21T07:29:09.147Z,99899.25
2023-04-21T07:31:36.538Z,99892.44
2023-04-21T07:34:03.708Z,99896.69
2023-04-21T07:36:31.783Z,99883.22
2023-04-21T07:38:59.177Z,99891.44
2023-04-21T07:41:26.556Z,99890.34
2023-04-21T07:43:53.952Z,99883.13
2023-04-21T07:46:23.027Z,99883.72
2023-04-21T07:48:50.107Z,99896.13
2023-04-21T07:51:18.060Z,99886.56
2023-04-21T07:53:44.969Z,99876.06
2023-04-21T07:56:13.335Z,99878.25
2023-04-21T07:58:40.531Z,99871.97
2023-04-21T08:01:07.612Z,99874.00
2023-04-21T08:03:34.899Z,99875.53
2023-04-21T08:06:02.639Z,99859.78
2023-04-21T08:08:31.880Z,99855.88
2023-04-21T08:10:59.321Z,99855.25
2023-04-21T08:13:26.276Z,99857.50
2023-04-21T08:15:53.510Z,99858.81
2023-04-21T08:18:22.467Z,99844.38
2023-04-21T08:20:49.896Z,99848.50
2023-04-21T08:23:16.903Z,99846.59
2023-04-21T08:25:44.136Z,99846.28
2023-04-21T08:28:11.127Z,99842.47
2023-04-21T08:30:38.015Z,99854.13
2023-04-21T08:33:05.025Z,99843.13
2023-04-21T08:35:32.471Z,99850.19
2023-04-21T08:37:59.792Z,99830.72
2023-04-21T08:40:39.106Z,99834.50
2023-04-21T08:43:07.165Z,99820.00
2023-04-21T08:45:34.955Z,99832.50
2023-04-21T08:48:04.896Z,99828.00
2023-04-21T08:50:32.568Z,99812.34
2023-04-21T08:52:59.549Z,99823.38
2023-04-21T08:55:29.229Z,99814.50
2023-04-21T08:57:56.482Z,99802.06
2023-04-21T09:00:23.843Z,99802.56
2023-04-21T09:03:01.400Z,99792.69
2023-04-21T09:05:32.001Z,99803.34
2023-04-21T09:08:12.180Z,99791.41
2023-04-21T09:10:46.638Z,99797.84
2023-04-21T09:13:14.163Z,99794.09
2023-04-21T09:15:49.681Z,99784.75
2023-04-21T09:18:23.050Z,99774.84
2023-04-21T09:20:53.197Z,99771.88
2023-04-21T09:23:21.676Z,99772.59
2023-04-21T09:25:48.628Z,99786.50
2023-04-21T09:28:15.602Z,99777.19
2023-04-21T09:30:43.476Z,99768.56
2023-04-21T09:33:29.497Z,99768.13
2023-04-21T09:36:03.333Z,99762.50
2023-04-21T09:38:30.527Z,99759.19
2023-04-21T09:41:00.426Z,99756.50
2023-04-21T09:43:27.436Z,99742.78
2023-04-21T09:45:56.132Z,99752.81
2023-04-21T09:48:26.201Z,99750.56
2023-04-21T09:51:22.822Z,99750.44
2023-04-21T09:53:42.858Z,99746.81
2023-04-21T09:56:15.839Z,99742.72
2023-04-21T09:58:53.520Z,99739.66
2023-04-21T10:01:21.117Z,99731.28
2023-04-21T10:03:49.427Z,99737.34
2023-04-21T10:06:16.803Z,99728.38
2023-04-21T10:08:44.720Z,99729.53
2023-04-21T10:11:13.228Z,99733.94
2023-04-21T10:13:42.283Z,99716.69
2023-04-21T10:16:10.500Z,99724.72
2023-04-21T10:18:45.067Z,99712.22
2023-04-21T10:21:18.075Z,99703.38
2023-04-21T10:23:49.213Z,99718.88
2023-04-21T10:26:20.581Z,99705.78
2023-04-21T10:28:59.860Z,99705.97
2023-04-21T10:31:52.629Z,99700.53
2023-04-21T10:34:22.237Z,99689.41
2023-04-21T10:36:52.022Z,99699.38
2023-04-21T10:39:29.695Z,99694.41
2023-04-21T10:42:01.484Z,99685.72
2023-04-21T10:44:31.722Z,99695.22
2023-04-21T10:46:59.226Z,99690.22
2023-04-21T10:49:30.729Z,99681.19
2023-04-21T10:51:57.885Z,99689.31
2023-04-21T10:54:29.840Z,99688.75
2023-04-21T10:56:58.920Z,99677.97
2023-04-21T10:59:27.239Z,99693.44
2023-04-21T11:01:55.154Z,99683.44
2023-04-21T11:04:23.462Z,99691.03
2023-04-21T11:07:12.915Z,99676.34
2023-04-21T11:09:41.521Z,99678.06
2023-04-21T11:12:11.058Z,99662.56
2023-04-21T11:14:40.680Z,99668.28
2023-04-21T11:17:18.579Z,99635.00
2023-04-21T11:19:46.963Z,99661.75
2023-04-21T11:22:13.954Z,99660.47
2023-04-21T11:24:45.867Z,99671.03
2023-04-21T11:27:14.550Z,99656.59
2023-04-21T11:29:42.109Z,99663.09
2023-04-21T11:32:09.691Z,99658.94
2023-04-21T11:34:38.514Z,99650.72
2023-04-21T11:37:10.961Z,99651.59
2023-04-21T11:39:42.088Z,99651.34
2023-04-21T11:42:09.468Z,99641.94
2023-04-21T11:44:37.586Z,99641.63
2023-04-21T11:47:27.710Z,99636.47
2023-04-21T11:49:56.568Z,99630.78
2023-04-21T11:52:26.212Z,99626.44
2023-04-21T11:54:59.477Z,99627.75
2023-04-21T11:57:30.470Z,99623.16
2023-04-21T12:00:02.347Z,99619.19
2023-04-21T12:02:34.868Z,99630.94
2023-04-21T12:05:06.320Z,99613.41
2023-04-21T12:07:39.274Z,99609.78
2023-04-21T12:10:22.555Z,99610.31
2023-04-21T12:12:49.508Z,99610.09
2023-04-21T12:15:20.372Z,99614.38
2023-04-21T12:17:49.218Z,99606.38
2023-04-21T12:20:21.337Z,99608.19
2023-04-21T12:22:49.497Z,99601.38
2023-04-21T12:25:16.691Z,99588.41
2023-04-21T12:27:54.515Z,99604.19
2023-04-21T12:30:21.973Z,99607.75
2023-04-21T12:32:49.305Z,99599.69
2023-04-21T12:35:23.168Z,99600.97
2023-04-21T12:37:56.300Z,99607.44
2023-04-21T12:40:23.305Z,99606.75
2023-04-21T12:42:50.329Z,99591.47
2023-04-21T12:45:17.442Z,99596.38
2023-04-21T12:47:46.359Z,99602.88
2023-04-21T12:50:14.410Z,99594.47
2023-04-21T12:52:41.476Z,99590.91
2023-04-21T12:55:08.909Z,99585.63
2023-04-21T12:57:35.957Z,99576.63
2023-04-21T13:00:04.451Z,99576.16
2023-04-21T13:02:37.357Z,99575.84
2023-04-21T13:05:07.480Z,99575.44
2023-04-21T13:07:34.672Z,99573.06
2023-04-21T13:10:02.772Z,99568.56
2023-04-21T13:12:30.759Z,99573.41
2023-04-21T13:14:57.736Z,99568.13
2023-04-21T13:17:24.810Z,99573.47
2023-04-21T13:19:51.911Z,99565.97
2023-04-21T13:22:18.897Z,99566.81
2023-04-21T13:24:45.938Z,99554.56
2023-04-21T13:27:13.133Z,99558.03
2023-04-21T13:29:40.241Z,99553.38
2023-04-21T13:32:08.123Z,99547.31
2023-04-21T13:34:44.973Z,99544.66
2023-04-21T13:37:16.388Z,99539.22
2023-04-21T13:39:43.400Z,99536.38
2023-04-21T13:42:10.591Z,99533.91
2023-04-21T13:44:37.779Z,99528.19
2023-04-21T13:47:07.504Z,99532.44
2023-04-21T13:49:35.988Z,99524.72
2023-04-21T13:52:02.881Z,99526.16
2023-04-21T13:54:30.073Z,99531.47
2023-04-21T13:56:57.431Z,99521.50
2023-04-21T13:59:24.357Z,99531.56
2023-04-21T14:01:52.180Z,99529.72
2023-04-21T14:04:21.236Z,99531.16
2023-04-21T14:06:50.147Z,99522.19
2023-04-21T14:09:17.207Z,99521.38
2023-04-21T14:11:44.268Z,99524.66
2023-04-21T14:14:11.233Z,99525.03
2023-04-21T14:16:40.930Z,99518.94
2023-04-21T14:19:08.049Z,99516.88
2023-04-21T14:21:35.172Z,99516.06
2023-04-21T14:24:02.357Z,99514.63
2023-04-21T14:26:29.406Z,99521.34
2023-04-21T14:28:56.596Z,99508.91
2023-04-21T14:31:23.739Z,99516.44
2023-04-21T14:33:50.932Z,99514.19
2023-04-21T14:36:18.192Z,99515.38
2023-04-21T14:38:45.344Z,99518.84
2023-04-21T14:41:12.643Z,99507.22
2023-04-21T14:43:39.724Z,99510.66
2023-04-21T14:46:07.092Z,99513.72
2023-04-21T14:48:34.168Z,99508.66
2023-04-21T14:51:01.405Z,99504.81
2023-04-21T14:53:28.534Z,99507.06
2023-04-21T14:55:55.549Z,99497.88
2023-04-21T14:58:22.799Z,99499.91
2023-04-21T15:00:50.159Z,99494.44
2023-04-21T15:03:17.279Z,99512.50
2023-04-21T15:05:44.292Z,99499.66
2023-04-21T15:08:11.972Z,99500.44
2023-04-21T15:10:39.082Z,99508.16
2023-04-21T15:13:06.193Z,99505.50
2023-04-21T15:15:33.214Z,99506.66
2023-04-21T15:18:00.437Z,99502.38
2023-04-21T15:20:43.038Z,99505.59
2023-04-21T15:23:12.184Z,99504.56
2023-04-21T15:25:39.916Z,99509.84
2023-04-21T15:28:10.155Z,99509.56
2023-04-21T15:30:37.648Z,99507.25
2023-04-21T15:33:05.064Z,99505.03
2023-04-21T15:35:32.212Z,99508.19
2023-04-21T15:37:59.254Z,99502.72
2023-04-21T15:40:27.105Z,99501.47
2023-04-21T15:42:54.231Z,99511.28
2023-04-21T15:45:21.207Z,99498.72
2023-04-21T15:47:48.354Z,99515.44
2023-04-21T15:50:16.058Z,99515.44
2023-04-21T15:52:43.668Z,99514.19
2023-04-21T15:55:12.246Z,99524.75
2023-04-21T15:57:39.983Z,99512.94
2023-04-21T16:00:09.027Z,99515.38
2023-04-21T16:02:36.848Z,99508.44
2023-04-21T16:05:04.262Z,99506.56
2023-04-21T16:07:32.049Z,99503.47
2023-04-21T16:09:59.205Z,99512.56
2023-04-21T16:12:26.239Z,99512.75
2023-04-21T16:14:59.645Z,99515.16
2023-04-21T16:17:36.912Z,99515.97
2023-04-21T16:20:05.759Z,99518.38
2023-04-21T16:22:34.609Z,99519.13
2023-04-21T16:25:01.869Z,99524.41
2023-04-21T16:27:30.601Z,99521.09
2023-04-21T16:29:57.664Z,99525.34
2023-04-21T16:32:24.818Z,99529.06
2023-04-21T16:34:51.997Z,99524.97
2023-04-21T16:37:19.212Z,99532.00
2023-04-21T16:39:46.361Z,99528.75
2023-04-21T16:42:13.432Z,99530.50
2023-04-21T16:44:40.850Z,99522.69
2023-04-21T16:47:08.623Z,99525.31
2023-04-21T16:49:35.818Z,99515.16
2023-04-21T16:52:02.932Z,99528.63
2023-04-21T16:54:29.972Z,99524.16
2023-04-21T16:56:57.700Z,99529.38
2023-04-21T16:59:24.684Z,99527.09
2023-04-21T17:01:51.768Z,99519.88
2023-04-21T17:04:19.091Z,99525.41
2023-04-21T17:06:48.314Z,99529.22
2023-04-21T17:09:15.457Z,99522.81
2023-04-21T17:11:42.740Z,99530.47
2023-04-21T17:14:10.838Z,99525.84
2023-04-21T17:16:38.077Z,99528.75
2023-04-21T17:19:05.208Z,99520.78
2023-04-21T17:21:32.256Z,99524.50
2023-04-21T17:23:59.344Z,99520.81
2023-04-21T17:26:26.487Z,99518.00
2023-04-21T17:28:53.556Z,99515.06
2023-04-21T17:31:21.074Z,99513.03
2023-04-21T17:33:48.075Z,99516.66
2023-04-21T17:36:17.017Z,99507.75
2023-04-21T17:38:44.177Z,99507.75
2023-04-21T17:41:11.691Z,99510.13
2023-04-21T17:43:38.840Z,99504.31
2023-04-21T17:46:07.125Z,99510.00
2023-04-21T17:48:34.253Z,99503.31
2023-04-21T17:51:01.210Z,99496.94
2023-04-21T17:53:28.262Z,99499.00
2023-04-21T17:55:55.446Z,99501.63
2023-04-21T17:58:22.882Z,99497.28
2023-04-21T18:00:49.807Z,99497.47
2023-04-21T18:03:16.994Z,99499.44
2023-04-21T18:05:44.848Z,99498.63
2023-04-21T18:08:12.003Z,99499.00
2023-04-21T18:10:39.106Z,99493.09
2023-04-21T18:13:06.771Z,99490.00
2023-04-21T18:15:33.857Z,99485.84
2023-04-21T18:18:01.058Z,99488.66
2023-04-21T18:20:28.237Z,99488.16
2023-04-21T18:22:55.360Z,99484.97
2023-04-21T18:25:38.403Z,99485.97
2023-04-21T18:28:11.212Z,99489.47
2023-04-21T18:30:39.572Z,99485.28
2023-04-21T18:33:06.815Z,99488.47
2023-04-21T18:35:34.253Z,99489.16
2023-04-21T18:38:01.481Z,99481.66
2023-04-21T18:40:28.597Z,99485.31
2023-04-21T18:42:55.831Z,99482.75
2023-04-21T18:45:22.889Z,99488.00
2023-04-21T18:47:49.901Z,99477.66
2023-04-21T18:50:16.973Z,99472.28
2023-04-21T18:52:44.001Z,99473.94
2023-04-21T18:55:11.247Z,99468.38
2023-04-21T18:57:38.215Z,99464.47
2023-04-21T19:00:07.055Z,99466.78
2023-04-21T19:02:34.644Z,99471.09
2023-04-21T19:05:02.012Z,99466.69
2023-04-21T19:07:31.843Z,99466.41
2023-04-21T19:09:58.966Z,99465.31
2023-04-21T19:12:26.201Z,99459.25
2023-04-21T19:14:53.590Z,99463.03
2023-04-21T19:17:20.925Z,99464.38
2023-04-21T19:19:48.001Z,99460.63
2023-04-21T19:22:14.996Z,99462.78
2023-04-21T19:24:42.207Z,99464.25
2023-04-21T19:27:09.300Z,99460.19
2023-04-21T19:29:37.175Z,99463.16
2023-04-21T19:32:04.273Z,99460.84
2023-04-21T19:34:31.446Z,99465.81
2023-04-21T19:36:59.094Z,99454.97
2023-04-21T19:39:26.180Z,99457.44
2023-04-21T19:41:53.205Z,99464.03
2023-04-21T19:44:20.447Z,99459.75
2023-04-21T19:46:47.388Z,99461.91
2023-04-21T19:49:14.483Z,99450.09
2023-04-21T19:51:41.546Z,99464.19
2023-04-21T19:54:11.974Z,99452.41
2023-04-21T19:56:40.758Z,99457.50
2023-04-21T19:59:07.997Z,99463.09
2023-04-21T20:01:35.209Z,99458.16
2023-04-21T20:04:03.775Z,99461.78
2023-04-21T20:06:32.135Z,99459.66
2023-04-21T20:08:59.475Z,99457.34
2023-04-21T20:11:29.104Z,99446.19
2023-04-21T20:13:56.584Z,99461.59
2023-04-21T20:16:26.318Z,99461.09
2023-04-21T20:18:56.124Z,99458.00
2023-04-21T20:21:23.191Z,99456.72
2023-04-21T20:23:50.387Z,99454.91
2023-04-21T20:26:17.421Z,99461.13
2023-04-21T20:28:44.465Z,99457.38
2023-04-21T20:31:11.663Z,99453.91
2023-04-21T20:33:38.684Z,99457.84
2023-04-21T20:36:08.963Z,99460.97
2023-04-21T20:38:36.187Z,99466.53
2023-04-21T20:41:03.424Z,99462.25
2023-04-21T20:43:34.326Z,99461.44
2023-04-21T20:46:01.782Z,99465.22
2023-04-21T20:48:29.143Z,99469.00
2023-04-21T20:50:56.491Z,99467.34
2023-04-21T20:53:23.916Z,99463.25
2023-04-21T20:55:51.243Z,99465.22
2023-04-21T20:58:18.420Z,99463.56
2023-04-21T21:00:45.712Z,99468.16
2023-04-21T21:03:13.848Z,99457.19
2023-04-21T21:05:41.593Z,99450.13
2023-04-21T21:08:09.220Z,99466.66
2023-04-21T21:10:36.425Z,99465.84
2023-04-21T21:13:03.987Z,99467.00
2023-04-21T21:15:31.180Z,99458.97
2023-04-21T21:17:58.920Z,99452.09
2023-04-21T21:20:26.225Z,99461.59
2023-04-21T21:22:53.243Z,99464.22
2023-04-21T21:25:20.756Z,99459.31
2023-04-21T21:27:48.058Z,99463.88
2023-04-21T21:30:15.310Z,99453.56
2023-04-21T21:32:42.403Z,99459.28
2023-04-21T21:35:10.459Z,99448.47
2023-04-21T21:37:37.930Z,99449.78
2023-04-21T21:40:06.285Z,99450.44
2023-04-21T21:42:33.314Z,99455.00
2023-04-21T21:45:01.028Z,99453.72
2023-04-21T21:47:31.105Z,99456.47
2023-04-21T21:49:59.046Z,99447.13
2023-04-21T21:52:28.641Z,99450.56
2023-04-21T21:54:56.984Z,99451.25
2023-04-21T21:57:24.231Z,99455.31
2023-04-21T21:59:51.348Z,99450.09
2023-04-21T22:02:18.439Z,99446.50
2023-04-21T22:04:46.108Z,99450.09
2023-04-21T22:07:13.128Z,99460.41
2023-04-21T22:09:40.630Z,99455.31
2023-04-21T22:12:08.093Z,99456.16
2023-04-21T22:14:35.297Z,99459.59
2023-04-21T22:17:03.008Z,99458.25
2023-04-21T22:19:31.100Z,99456.63
2023-04-21T22:21:58.288Z,99456.13
2023-04-21T22:24:25.360Z,99459.91
2023-04-21T22:26:52.455Z,99453.16
2023-04-21T22:29:19.515Z,99451.88
2023-04-21T22:31:46.867Z,99453.81
2023-04-21T22:34:18.739Z,99454.13
2023-04-21T22:36:46.116Z,99444.13
2023-04-21T22:39:13.019Z,99448.72
2023-04-21T22:41:40.106Z,99450.19
2023-04-21T22:44:07.148Z,99454.88
2023-04-21T22:46:34.199Z,99449.31
2023-04-21T22:49:02.767Z,99453.22
2023-04-21T22:51:34.709Z,99453.84
2023-04-21T22:54:02.032Z,99455.16
2023-04-21T22:56:31.143Z,99446.59
2023-04-21T22:58:58.216Z,99445.28
2023-04-21T23:01:25.362Z,99449.81
2023-04-21T23:03:52.386Z,99443.91
2023-04-21T23:06:19.472Z,99446.16
2023-04-21T23:08:46.632Z,99454.31
2023-04-21T23:11:14.049Z,99448.75
2023-04-21T23:13:41.322Z,99451.81
2023-04-21T23:16:08.428Z,99454.09
2023-04-21T23:18:36.027Z,99452.75
2023-04-21T23:21:03.182Z,99450.59
2023-04-21T23:23:30.254Z,99457.09
2023-04-21T23:25:57.194Z,99446.28
2023-04-21T23:28:24.449Z,99455.91
2023-04-21T23:30:51.531Z,99438.38
2023-04-21T23:33:18.695Z,99447.03
2023-04-21T23:35:45.775Z,99450.78
2023-04-21T23:38:12.946Z,99438.34
2023-04-21T23:40:40.128Z,99436.69
2023-04-21T23:43:07.764Z,99436.47
2023-04-21T23:45:34.903Z,99434.66
2023-04-21T23:48:01.933Z,99431.41
2023-04-21T23:50:29.104Z,99436.94
2023-04-21T23:52:56.278Z,99434.63
2023-04-21T23:55:23.413Z,99436.72
2023-04-21T23:57:50.461Z,99429.19
